createdAt,value
2018-12-24T00:03:08.224Z,81.44
2018-12-24T00:05:37.866Z,81.40
2018-12-24T00:11:01.951Z,81.38
2018-12-24T00:13:31.647Z,81.38
2018-12-24T00:16:01.268Z,81.33
2018-12-24T00:18:31.099Z,81.40
2018-12-24T00:21:00.779Z,81.42
2018-12-24T00:23:30.414Z,81.37
2018-12-24T00:26:00.244Z,81.36
2018-12-24T00:28:30.037Z,81.39
2018-12-24T00:30:59.695Z,81.36
2018-12-24T00:33:29.540Z,81.39
2018-12-24T00:35:59.252Z,81.38
2018-12-24T00:38:28.930Z,81.38
2018-12-24T00:40:58.659Z,81.32
2018-12-24T00:43:28.360Z,81.35
2018-12-24T00:45:57.988Z,81.32
2018-12-24T00:48:27.828Z,81.29
2018-12-24T00:50:57.542Z,81.29
2018-12-24T00:53:27.159Z,81.30
2018-12-24T00:55:56.889Z,81.25
2018-12-24T00:58:26.573Z,81.25
2018-12-24T01:00:56.194Z,81.25
2018-12-24T01:03:25.901Z,81.22
2018-12-24T01:05:55.555Z,81.20
2018-12-24T01:08:25.204Z,81.18
2018-12-24T01:10:55.332Z,81.23
2018-12-24T01:13:25.010Z,81.23
2018-12-24T01:15:54.654Z,81.24
2018-12-24T01:18:24.639Z,81.24
2018-12-24T01:20:54.347Z,81.25
2018-12-24T01:23:23.978Z,81.27
2018-12-24T01:25:53.698Z,81.23
2018-12-24T01:28:42.311Z,81.21
2018-12-24T01:31:12.232Z,81.16
2018-12-24T01:33:41.888Z,81.14
2018-12-24T01:36:12.112Z,81.11
2018-12-24T01:38:41.824Z,81.13
2018-12-24T01:41:11.468Z,81.13
2018-12-24T01:43:41.244Z,81.09
2018-12-24T01:46:11.208Z,81.08
2018-12-24T01:48:59.835Z,81.12
2018-12-24T01:51:48.518Z,81.08
2018-12-24T01:54:18.201Z,81.09
2018-12-24T01:56:47.817Z,81.04
2018-12-24T01:59:17.639Z,81.00
2018-12-24T02:01:47.313Z,80.96
2018-12-24T02:04:16.954Z,80.96
2018-12-24T02:06:46.876Z,80.95
2018-12-24T02:09:16.556Z,80.98
2018-12-24T02:11:46.175Z,80.96
2018-12-24T02:14:15.881Z,80.93
2018-12-24T02:16:45.524Z,80.91
2018-12-24T02:19:15.218Z,80.92
2018-12-24T02:21:45.234Z,80.92
2018-12-24T02:24:17.123Z,80.91
2018-12-24T02:26:47.016Z,80.92
2018-12-24T02:29:35.642Z,80.88
2018-12-24T02:32:05.455Z,80.86
2018-12-24T02:34:53.961Z,80.84
2018-12-24T02:37:23.698Z,80.79
2018-12-24T02:39:53.327Z,80.80
2018-12-24T02:42:23.000Z,80.82
2018-12-24T02:44:52.981Z,80.76
2018-12-24T02:47:22.614Z,80.75
2018-12-24T02:49:52.305Z,80.79
2018-12-24T02:52:22.518Z,80.78
2018-12-24T02:54:52.162Z,80.77
2018-12-24T02:57:21.838Z,80.76
2018-12-24T02:59:51.577Z,80.71
2018-12-24T03:02:21.255Z,80.72
2018-12-24T03:04:50.939Z,80.71
2018-12-24T03:07:20.761Z,80.67
2018-12-24T03:09:50.398Z,80.62
2018-12-24T03:12:20.023Z,80.61
2018-12-24T03:14:49.754Z,80.59
2018-12-24T03:17:19.374Z,80.58
2018-12-24T03:19:49.064Z,80.55
2018-12-24T03:22:18.912Z,80.52
2018-12-24T03:24:48.552Z,80.43
2018-12-24T03:27:18.239Z,80.38
2018-12-24T03:29:48.039Z,80.35
2018-12-24T03:32:17.689Z,80.29
2018-12-24T03:34:47.428Z,80.24
2018-12-24T03:37:17.271Z,80.21
2018-12-24T03:39:46.937Z,80.16
2018-12-24T03:42:16.575Z,80.09
2018-12-24T03:44:46.291Z,80.06
2018-12-24T03:47:15.948Z,80.04
2018-12-24T03:49:45.602Z,80.02
2018-12-24T03:52:15.428Z,80.00
2018-12-24T03:54:45.082Z,79.95
2018-12-24T03:57:14.867Z,79.94
2018-12-24T03:59:44.677Z,79.89
2018-12-24T04:02:14.326Z,79.83
2018-12-24T04:04:43.974Z,79.84
2018-12-24T04:10:02.452Z,79.82
2018-12-24T04:12:32.138Z,79.79
2018-12-24T04:15:01.770Z,79.78
2018-12-24T04:17:50.332Z,79.77
2018-12-24T04:20:20.325Z,79.75
2018-12-24T04:22:49.974Z,79.78
2018-12-24T04:25:19.869Z,79.78
2018-12-24T04:27:49.503Z,79.74
2018-12-24T04:30:19.138Z,79.75
2018-12-24T04:32:48.951Z,79.80
2018-12-24T04:35:18.690Z,79.78
2018-12-24T04:37:48.336Z,79.79
2018-12-24T04:40:18.303Z,79.83
2018-12-24T04:42:47.957Z,79.80
2018-12-24T04:45:17.603Z,79.81
2018-12-24T04:47:47.644Z,79.82
2018-12-24T04:50:17.276Z,79.79
2018-12-24T04:52:46.919Z,79.77
2018-12-24T04:55:16.717Z,79.81
2018-12-24T04:57:46.360Z,79.79
2018-12-24T05:00:16.059Z,79.78
2018-12-24T05:02:45.828Z,79.74
2018-12-24T05:05:15.463Z,79.75
2018-12-24T05:07:45.161Z,79.79
2018-12-24T05:10:14.919Z,79.76
2018-12-24T05:12:44.561Z,79.75
2018-12-24T05:15:14.209Z,79.79
2018-12-24T05:17:44.160Z,79.75
2018-12-24T05:20:13.789Z,79.65
2018-12-24T05:22:43.443Z,79.65
2018-12-24T05:25:13.198Z,79.59
2018-12-24T05:27:42.979Z,79.53
2018-12-24T05:30:12.627Z,79.47
2018-12-24T05:32:42.545Z,79.48
2018-12-24T05:35:12.187Z,79.42
2018-12-24T05:37:41.950Z,79.52
2018-12-24T05:40:11.711Z,79.49
2018-12-24T05:43:00.362Z,79.48
2018-12-24T05:45:30.135Z,79.37
2018-12-24T05:47:59.803Z,79.34
2018-12-24T05:50:29.531Z,79.30
2018-12-24T05:52:59.215Z,79.25
2018-12-24T05:55:28.848Z,79.26
2018-12-24T05:57:58.773Z,79.21
2018-12-24T06:00:28.438Z,79.18
2018-12-24T06:02:58.079Z,79.12
2018-12-24T06:05:27.790Z,79.10
2018-12-24T06:07:57.531Z,79.05
2018-12-24T06:10:27.168Z,79.12
2018-12-24T06:12:57.113Z,79.19
2018-12-24T06:15:26.763Z,79.25
2018-12-24T06:17:57.673Z,79.22
2018-12-24T06:20:28.091Z,79.20
2018-12-24T06:22:57.745Z,79.24
2018-12-24T06:25:28.432Z,79.27
2018-12-24T06:27:58.188Z,79.31
2018-12-24T06:30:28.060Z,79.21
2018-12-24T06:32:57.696Z,79.33
2018-12-24T06:35:27.482Z,79.41
2018-12-24T06:37:57.752Z,79.44
2018-12-24T06:40:27.376Z,79.40
2018-12-24T06:42:57.313Z,79.34
2018-12-24T06:45:27.017Z,79.30
2018-12-24T06:47:56.627Z,79.28
2018-12-24T06:50:26.424Z,79.24
2018-12-24T06:52:56.063Z,79.23
2018-12-24T06:55:25.717Z,79.20
2018-12-24T06:57:55.517Z,79.05
2018-12-24T07:00:25.147Z,79.08
2018-12-24T07:02:54.806Z,78.95
2018-12-24T07:05:24.844Z,78.91
2018-12-24T07:07:54.449Z,78.81
2018-12-24T07:10:24.064Z,78.71
2018-12-24T07:12:53.932Z,78.70
2018-12-24T07:15:23.569Z,78.71
2018-12-24T07:17:53.218Z,78.75
2018-12-24T07:20:23.163Z,78.73
2018-12-24T07:22:52.812Z,78.60
2018-12-24T07:25:29.723Z,78.56
2018-12-24T07:27:59.356Z,78.53
2018-12-24T07:30:28.984Z,78.53
2018-12-24T07:32:58.895Z,78.56
2018-12-24T07:35:28.534Z,78.54
2018-12-24T07:37:58.175Z,78.58
2018-12-24T07:40:27.999Z,78.49
2018-12-24T07:42:57.670Z,78.56
2018-12-24T07:45:27.311Z,78.44
2018-12-24T07:47:57.126Z,78.39
2018-12-24T07:50:26.826Z,78.39
2018-12-24T07:52:56.445Z,78.35
2018-12-24T07:55:26.367Z,78.26
2018-12-24T07:57:56.004Z,78.13
2018-12-24T08:00:25.810Z,78.10
2018-12-24T08:02:55.688Z,77.80
2018-12-24T08:05:25.295Z,77.47
2018-12-24T08:07:54.951Z,78.02
2018-12-24T08:10:24.826Z,77.86
2018-12-24T08:12:54.450Z,77.96
2018-12-24T08:15:24.083Z,77.87
2018-12-24T08:17:53.837Z,78.03
2018-12-24T08:20:23.458Z,78.08
2018-12-24T08:22:53.203Z,78.04
2018-12-24T08:25:22.961Z,77.98
2018-12-24T08:27:52.593Z,78.08
2018-12-24T08:30:22.238Z,78.07
2018-12-24T08:32:52.353Z,77.97
2018-12-24T08:35:21.962Z,77.95
2018-12-24T08:37:51.595Z,77.96
2018-12-24T08:40:21.364Z,77.96
2018-12-24T08:42:51.098Z,78.04
2018-12-24T08:45:20.745Z,77.97
2018-12-24T08:47:50.559Z,78.12
2018-12-24T08:50:20.191Z,78.18
2018-12-24T08:52:49.828Z,78.35
2018-12-24T08:55:19.715Z,78.45
2018-12-24T08:57:49.399Z,78.42
2018-12-24T09:00:37.949Z,78.46
2018-12-24T09:03:07.586Z,78.42
2018-12-24T09:05:37.220Z,78.44
2018-12-24T09:08:07.085Z,78.70
2018-12-24T09:10:36.729Z,78.87
2018-12-24T09:13:06.364Z,78.90
2018-12-24T09:15:36.231Z,78.92
2018-12-24T09:18:05.867Z,79.00
2018-12-24T09:20:35.488Z,79.14
2018-12-24T09:23:05.452Z,79.29
2018-12-24T09:25:35.099Z,79.68
2018-12-24T09:30:54.344Z,81.18
2018-12-24T09:33:23.979Z,82.23
2018-12-24T09:35:53.759Z,82.67
2018-12-24T09:38:23.684Z,83.09
2018-12-24T09:43:52.455Z,83.94
2018-12-24T09:46:22.128Z,83.06
2018-12-24T09:48:51.788Z,81.01
2018-12-24T09:56:33.730Z,80.17
2018-12-24T09:59:03.475Z,79.72
2018-12-24T10:01:33.135Z,79.61
2018-12-24T10:04:12.220Z,79.39
2018-12-24T10:10:14.328Z,79.07
2018-12-24T10:12:43.999Z,78.83
2018-12-24T10:15:13.639Z,78.61
2018-12-24T10:18:02.300Z,78.28
2018-12-24T10:20:32.378Z,78.22
2018-12-24T10:23:02.038Z,78.12
2018-12-24T10:25:32.184Z,77.79
2018-12-24T10:28:01.819Z,78.21
2018-12-24T10:30:31.489Z,78.02
2018-12-24T10:33:01.239Z,78.18
2018-12-24T10:35:30.881Z,78.08
2018-12-24T10:41:11.216Z,78.21
2018-12-24T10:43:40.867Z,78.19
2018-12-24T10:46:10.618Z,78.10
2018-12-24T10:48:40.442Z,78.24
2018-12-24T10:51:10.162Z,78.34
2018-12-24T10:53:39.810Z,78.10
2018-12-24T10:56:09.602Z,77.86
2018-12-24T10:58:39.265Z,78.02
2018-12-24T11:01:08.890Z,78.21
2018-12-24T11:03:38.799Z,77.88
2018-12-24T11:06:08.599Z,78.03
2018-12-24T11:08:38.256Z,78.18
2018-12-24T11:11:26.996Z,78.05
2018-12-24T11:13:56.637Z,77.91
2018-12-24T11:16:26.245Z,78.25
2018-12-24T11:18:56.037Z,78.21
2018-12-24T11:21:26.083Z,78.16
2018-12-24T11:23:55.722Z,77.91
2018-12-24T11:26:25.620Z,77.94
2018-12-24T11:28:55.252Z,78.21
2018-12-24T11:31:24.872Z,78.25
2018-12-24T11:33:54.771Z,78.33
2018-12-24T11:36:27.129Z,78.19
2018-12-24T11:38:57.029Z,78.35
2018-12-24T11:41:26.709Z,78.36
2018-12-24T11:43:56.338Z,78.39
2018-12-24T11:46:26.570Z,78.46
2018-12-24T11:48:56.373Z,78.36
2018-12-24T11:51:26.259Z,78.24
2018-12-24T11:53:56.052Z,78.20
2018-12-24T11:56:25.730Z,78.12
2018-12-24T11:58:55.400Z,78.07
2018-12-24T12:01:25.124Z,78.03
2018-12-24T12:03:54.885Z,78.02
2018-12-24T12:06:24.535Z,78.16
2018-12-24T12:08:54.568Z,78.77
2018-12-24T12:11:24.261Z,79.21
2018-12-24T12:13:53.903Z,79.29
2018-12-24T12:16:23.803Z,79.23
2018-12-24T12:18:53.460Z,79.32
2018-12-24T12:21:23.079Z,78.82
2018-12-24T12:23:53.237Z,78.88
2018-12-24T12:26:22.912Z,79.16
2018-12-24T12:28:52.544Z,79.13
2018-12-24T12:31:22.489Z,78.76
2018-12-24T12:33:52.156Z,78.17
2018-12-24T12:36:21.778Z,78.22
2018-12-24T12:38:51.699Z,77.83
2018-12-24T12:41:21.473Z,77.51
2018-12-24T12:43:51.081Z,77.08
2018-12-24T12:46:20.808Z,76.51
2018-12-24T12:48:50.490Z,76.27
2018-12-24T12:51:20.227Z,76.35
2018-12-24T12:53:49.976Z,76.41
2018-12-24T12:56:19.899Z,76.14
2018-12-24T12:58:49.529Z,76.41
2018-12-24T13:01:19.407Z,76.12
2018-12-24T13:03:49.074Z,76.08
2018-12-24T13:06:18.687Z,76.26
2018-12-24T13:08:48.719Z,76.28
2018-12-24T13:11:18.491Z,76.23
2018-12-24T13:13:48.117Z,76.49
2018-12-24T13:16:18.053Z,76.47
2018-12-24T13:18:47.734Z,76.65
2018-12-24T13:21:36.263Z,76.66
2018-12-24T13:24:05.944Z,76.74
2018-12-24T13:26:35.834Z,76.67
2018-12-24T13:29:05.747Z,76.74
2018-12-24T13:31:35.410Z,76.79
2018-12-24T13:34:05.062Z,76.81
2018-12-24T13:36:34.808Z,76.86
2018-12-24T13:42:00.736Z,76.91
2018-12-24T13:44:30.383Z,77.02
2018-12-24T13:47:00.015Z,77.04
2018-12-24T13:49:29.895Z,77.03
2018-12-24T13:51:59.605Z,77.03
2018-12-24T13:54:29.264Z,77.17
2018-12-24T13:56:59.490Z,77.43
2018-12-24T13:59:29.176Z,77.44
2018-12-24T14:02:18.566Z,77.49
2018-12-24T14:04:48.216Z,77.61
2018-12-24T14:07:18.812Z,77.65
2018-12-24T14:09:49.542Z,77.80
2018-12-24T14:12:19.470Z,78.03
2018-12-24T14:14:49.068Z,78.09
2018-12-24T14:17:19.080Z,78.28
2018-12-24T14:19:48.701Z,78.36
2018-12-24T14:22:18.332Z,78.40
2018-12-24T14:24:48.206Z,78.41
2018-12-24T14:27:17.955Z,78.52
2018-12-24T14:29:47.609Z,78.73
2018-12-24T14:32:17.550Z,78.82
2018-12-24T14:34:47.177Z,78.85
2018-12-24T14:37:16.801Z,79.06
2018-12-24T14:39:46.767Z,79.17
2018-12-24T14:45:05.459Z,79.42
2018-12-24T14:47:35.961Z,79.27
2018-12-24T14:52:54.958Z,79.28
2018-12-24T14:55:24.670Z,79.41
2018-12-24T15:00:43.335Z,79.62
2018-12-24T15:03:13.086Z,79.73
2018-12-24T15:05:42.952Z,79.83
2018-12-24T15:08:12.869Z,79.89
2018-12-24T15:10:42.781Z,79.86
2018-12-24T15:13:13.995Z,80.01
2018-12-24T15:15:43.978Z,80.00
2018-12-24T15:18:32.805Z,80.20
2018-12-24T15:21:02.510Z,80.30
2018-12-24T15:23:32.161Z,80.33
2018-12-24T15:26:01.964Z,80.40
2018-12-24T15:28:31.664Z,80.45
2018-12-24T15:31:01.563Z,80.31
2018-12-24T15:33:31.564Z,80.27
2018-12-24T15:36:01.239Z,80.34
2018-12-24T15:38:30.880Z,80.34
2018-12-24T15:41:00.808Z,80.52
2018-12-24T15:43:30.567Z,80.56
2018-12-24T15:46:00.358Z,80.51
2018-12-24T15:48:30.090Z,80.40
2018-12-24T15:51:19.143Z,80.51
2018-12-24T15:53:48.974Z,80.55
2018-12-24T15:56:18.644Z,80.53
2018-12-24T15:58:48.313Z,80.51
2018-12-24T16:01:18.134Z,80.45
2018-12-24T16:03:47.766Z,80.46
2018-12-24T16:06:17.460Z,80.45
2018-12-24T16:08:47.489Z,80.62
2018-12-24T16:11:17.126Z,80.70
2018-12-24T16:13:46.816Z,80.91
2018-12-24T16:16:16.904Z,80.95
2018-12-24T16:18:46.583Z,81.06
2018-12-24T16:21:16.300Z,81.12
2018-12-24T16:23:46.248Z,81.18
2018-12-24T16:29:11.865Z,81.20
2018-12-24T16:31:41.529Z,81.31
2018-12-24T16:34:11.314Z,81.38
2018-12-24T16:36:41.076Z,81.50
2018-12-24T16:39:10.695Z,81.39
2018-12-24T16:41:59.416Z,81.34
2018-12-24T16:44:29.052Z,81.26
2018-12-24T16:46:59.431Z,81.22
2018-12-24T16:49:30.335Z,81.24
2018-12-24T16:51:59.970Z,81.21
2018-12-24T16:54:41.242Z,81.31
2018-12-24T16:57:10.902Z,81.62
2018-12-24T16:59:40.541Z,81.56
2018-12-24T17:02:10.484Z,81.52
2018-12-24T17:04:40.082Z,81.47
2018-12-24T17:07:09.722Z,81.59
2018-12-24T17:09:40.524Z,81.50
2018-12-24T17:12:10.164Z,81.56
2018-12-24T17:14:39.796Z,81.48
2018-12-24T17:17:09.735Z,81.47
2018-12-24T17:19:39.370Z,81.51
2018-12-24T17:22:09.001Z,81.63
2018-12-24T17:24:38.776Z,81.65
2018-12-24T17:27:08.879Z,81.62
2018-12-24T17:29:38.511Z,81.58
2018-12-24T17:34:43.222Z,81.57
2018-12-24T17:37:31.785Z,81.68
2018-12-24T17:40:01.528Z,81.72
2018-12-24T17:42:31.175Z,81.68
2018-12-24T17:45:00.839Z,81.72
2018-12-24T17:47:30.666Z,81.72
2018-12-24T17:50:00.300Z,81.71
2018-12-24T17:52:29.971Z,81.64
2018-12-24T17:54:59.860Z,81.65
2018-12-24T17:57:32.416Z,81.59
2018-12-24T18:00:02.202Z,81.54
2018-12-24T18:02:32.047Z,81.55
2018-12-24T18:05:01.668Z,81.52
2018-12-24T18:07:31.424Z,81.48
2018-12-24T18:10:01.051Z,81.47
2018-12-24T18:15:19.434Z,81.42
2018-12-24T18:17:49.090Z,81.37
2018-12-24T18:20:18.718Z,81.36
2018-12-24T18:22:48.488Z,81.35
2018-12-24T18:28:27.478Z,81.23
2018-12-24T18:30:57.558Z,81.16
2018-12-24T18:33:28.968Z,81.16
2018-12-24T18:35:58.620Z,81.11
2018-12-24T18:38:28.266Z,81.04
2018-12-24T18:40:58.105Z,81.01
2018-12-24T18:43:27.781Z,80.95
2018-12-24T18:45:57.420Z,80.96
2018-12-24T18:48:27.539Z,80.99
2018-12-24T18:50:57.211Z,80.96
2018-12-24T18:53:26.848Z,80.98
2018-12-24T18:55:56.584Z,81.00
2018-12-24T18:58:26.355Z,81.00
2018-12-24T19:00:55.978Z,81.00
2018-12-24T19:03:25.703Z,81.01
2018-12-24T19:05:55.411Z,81.02
2018-12-24T19:08:25.067Z,81.04
2018-12-24T19:10:54.796Z,81.06
2018-12-24T19:13:24.509Z,81.07
2018-12-24T19:15:54.177Z,81.08
2018-12-24T19:18:42.948Z,81.07
2018-12-24T19:21:12.577Z,81.06
2018-12-24T19:23:42.201Z,81.10
2018-12-24T19:26:11.984Z,81.09
2018-12-24T19:28:41.614Z,81.07
2018-12-24T19:31:13.691Z,81.08
2018-12-24T19:33:43.338Z,81.12
2018-12-24T19:36:13.067Z,81.13
2018-12-24T19:38:42.921Z,81.11
2018-12-24T19:41:12.599Z,81.12
2018-12-24T19:43:42.231Z,81.15
2018-12-24T19:46:11.968Z,81.14
2018-12-24T19:48:41.624Z,81.11
2018-12-24T19:51:11.235Z,81.13
2018-12-24T19:53:40.973Z,81.13
2018-12-24T19:56:10.770Z,81.10
2018-12-24T19:58:40.422Z,81.11
2018-12-24T20:01:21.714Z,81.13
2018-12-24T20:03:51.355Z,81.14
2018-12-24T20:06:21.008Z,81.07
2018-12-24T20:08:50.770Z,81.11
2018-12-24T20:11:20.427Z,81.12
2018-12-24T20:13:50.035Z,81.00
2018-12-24T20:19:13.995Z,80.94
2018-12-24T20:21:43.670Z,80.92
2018-12-24T20:24:13.287Z,80.91
2018-12-24T20:26:43.138Z,80.90
2018-12-24T20:29:12.913Z,80.89
2018-12-24T20:31:42.525Z,80.88
2018-12-24T20:34:12.372Z,80.86
2018-12-24T20:36:42.043Z,80.83
2018-12-24T20:39:11.964Z,80.79
2018-12-24T20:41:41.910Z,80.79
2018-12-24T20:44:30.910Z,80.81
2018-12-24T20:47:01.002Z,80.79
2018-12-24T20:49:30.617Z,80.78
2018-12-24T20:54:36.056Z,80.72
2018-12-24T20:57:05.733Z,80.75
2018-12-24T21:02:44.660Z,80.76
2018-12-24T21:05:14.334Z,80.75
2018-12-24T21:07:43.974Z,80.76
2018-12-24T21:10:13.844Z,80.75
2018-12-24T21:12:43.519Z,80.75
2018-12-24T21:15:13.185Z,80.74
2018-12-24T21:17:42.958Z,80.75
2018-12-24T21:20:12.705Z,80.78
2018-12-24T21:22:42.337Z,80.77
2018-12-24T21:25:12.202Z,80.78
2018-12-24T21:27:41.835Z,80.80
2018-12-24T21:30:30.415Z,80.80
2018-12-24T21:33:00.086Z,80.89
2018-12-24T21:35:29.708Z,80.90
2018-12-24T21:37:59.535Z,80.90
2018-12-24T21:40:29.162Z,81.04
2018-12-24T21:42:58.822Z,80.98
2018-12-24T21:45:28.587Z,81.02
2018-12-24T21:47:58.250Z,81.04
2018-12-24T21:50:28.131Z,81.13
2018-12-24T21:52:57.979Z,81.17
2018-12-24T21:55:27.592Z,81.24
2018-12-24T21:57:57.223Z,81.32
2018-12-24T22:00:27.074Z,81.52
2018-12-24T22:02:56.712Z,81.49
2018-12-24T22:05:26.498Z,81.59
2018-12-24T22:07:56.399Z,81.58
2018-12-24T22:10:26.021Z,81.51
2018-12-24T22:13:14.782Z,81.58
2018-12-24T22:15:44.754Z,81.78
2018-12-24T22:18:14.396Z,81.83
2018-12-24T22:20:44.272Z,81.80
2018-12-24T22:23:13.895Z,81.79
2018-12-24T22:25:43.521Z,81.86
2018-12-24T22:28:13.328Z,81.93
2018-12-24T22:30:42.988Z,81.89
2018-12-24T22:33:12.627Z,81.92
2018-12-24T22:35:42.686Z,81.90
2018-12-24T22:38:12.278Z,81.94
2018-12-24T22:40:41.921Z,81.97
2018-12-24T22:43:30.657Z,81.97
2018-12-24T22:46:00.285Z,82.00
2018-12-24T22:48:31.216Z,81.98
2018-12-24T22:51:01.802Z,82.01
2018-12-24T22:53:50.257Z,82.00
2018-12-24T22:56:20.276Z,82.06
2018-12-24T22:58:49.973Z,82.06
2018-12-24T23:01:19.668Z,81.98
2018-12-24T23:03:49.513Z,82.19
2018-12-24T23:06:32.440Z,82.19
2018-12-24T23:09:02.343Z,82.28
2018-12-24T23:11:31.977Z,82.27
2018-12-24T23:14:01.618Z,82.27
2018-12-24T23:16:31.467Z,82.32
2018-12-24T23:19:01.086Z,82.37
2018-12-24T23:21:30.712Z,82.43
2018-12-24T23:24:00.910Z,82.38
2018-12-24T23:26:30.558Z,82.43
2018-12-24T23:29:00.189Z,82.47
2018-12-24T23:31:32.059Z,82.48
2018-12-24T23:34:01.685Z,82.51
2018-12-24T23:36:31.485Z,82.60
2018-12-24T23:39:01.229Z,82.65
2018-12-24T23:41:30.861Z,82.73
2018-12-24T23:44:00.560Z,82.74
2018-12-24T23:46:30.212Z,82.75
2018-12-24T23:48:59.834Z,82.75
2018-12-24T23:54:18.389Z,82.84
2018-12-24T23:56:48.012Z,82.78
2018-12-24T23:59:17.719Z,82.88
